Pagrindinis puslapis
METAR-TAF:

METAR-TAF

Oro uostai :

Groote Eylandt, Australija

platuma: 13-58-30S, ilguma: 136-27-36E, Aukštis: 16 m

Dabartinis oras

Ataskaita buvo paskelbta 1 valandą ir 8 minutes, ne 04:00 UTC
Vėjas 13 kt iš Rytų
Temperatūra 31°C
Drėgmė 52%
Slėgis 1013 hPa
Matomumas 10 km arba daugiau

METAR: YGTE 210400Z AUTO 09013KT 9999 // ////// 31/20 Q1013

Laikas: 14:38 (05:08 UTC)


TAF: trūkstamas

Orai ataskaitas ir orų prognozės (METAR, TAF).

turimą stotys yra geltonos ir raudonos taškus žemėlapyje.

Perkelti pele per norėdami pamatyti stoties vardą.

Tada spustelėkite, norėdami matyti oro stebėjimo ir prognozės.

Norėdami pakeisti žemėlapį: spustelėkite ant žalios mygtukų su juodo kryžiaus žemyn,; žalią mygtuką su brūkšneliu, jei norite nutolinti; arba žalių rodyklių gretimoms žemėlapius.


METAR-TAF: